createdAt,value
2023-03-10T00:03:04.740Z,6.27
2023-03-10T00:07:54.074Z,5.37
2023-03-10T00:12:43.914Z,6.97
2023-03-10T00:17:29.504Z,5.73
2023-03-10T00:22:16.414Z,6.27
2023-03-10T00:27:05.962Z,6.53
2023-03-10T00:31:53.956Z,7.30
2023-03-10T00:36:41.710Z,5.93
2023-03-10T00:41:30.782Z,7.13
2023-03-10T00:46:14.299Z,10.43
2023-03-10T00:50:57.853Z,7.87
2023-03-10T00:55:45.268Z,6.20
2023-03-10T01:00:31.773Z,6.40
2023-03-10T01:05:21.705Z,5.60
2023-03-10T01:10:07.516Z,9.33
2023-03-10T01:14:55.354Z,8.57
2023-03-10T01:19:43.649Z,6.83
2023-03-10T01:24:33.717Z,6.57
2023-03-10T01:29:19.041Z,3.87
2023-03-10T01:34:07.878Z,6.70
2023-03-10T01:38:58.120Z,5.37
2023-03-10T01:43:45.929Z,6.00
2023-03-10T01:48:34.926Z,4.17
2023-03-10T01:53:22.214Z,3.97
2023-03-10T01:58:08.925Z,4.10
2023-03-10T02:03:10.381Z,6.57
2023-03-10T02:07:58.540Z,4.97
2023-03-10T02:12:59.911Z,3.93
2023-03-10T02:17:53.787Z,6.27
2023-03-10T02:22:40.117Z,6.90
2023-03-10T02:27:32.132Z,5.50
2023-03-10T02:32:16.830Z,5.83
2023-03-10T02:37:03.853Z,5.37
2023-03-10T02:41:53.719Z,6.03
2023-03-10T02:46:40.935Z,4.33
2023-03-10T02:51:30.350Z,5.53
2023-03-10T02:56:16.812Z,7.97
2023-03-10T03:01:06.131Z,4.47
2023-03-10T03:06:14.318Z,5.30
2023-03-10T03:11:10.033Z,5.13
2023-03-10T03:16:04.054Z,2.53
2023-03-10T03:20:53.014Z,5.80
2023-03-10T03:25:40.342Z,4.03
2023-03-10T03:30:27.214Z,5.10
2023-03-10T03:35:27.704Z,3.97
2023-03-10T03:40:15.697Z,5.63
2023-03-10T03:45:08.152Z,4.73
2023-03-10T03:49:51.920Z,3.53
2023-03-10T03:54:44.480Z,4.20
2023-03-10T03:59:28.075Z,3.03
2023-03-10T04:04:17.250Z,3.47
2023-03-10T04:09:05.434Z,4.63
2023-03-10T04:13:53.727Z,5.03
2023-03-10T04:18:41.909Z,3.73
2023-03-10T04:23:30.270Z,3.43
2023-03-10T04:28:17.076Z,3.20
2023-03-10T04:33:05.179Z,2.10
2023-03-10T04:37:51.044Z,2.67
2023-03-10T04:42:39.482Z,1.33
2023-03-10T04:47:28.977Z,3.17
2023-03-10T04:52:16.988Z,2.07
2023-03-10T04:57:03.836Z,2.53
2023-03-10T05:01:52.462Z,1.40
2023-03-10T05:06:39.889Z,2.30
2023-03-10T05:11:43.806Z,2.73
2023-03-10T05:16:31.511Z,2.10
2023-03-10T05:21:19.165Z,0.97
2023-03-10T05:26:13.038Z,0.77
2023-03-10T05:30:56.523Z,4.13
2023-03-10T05:35:46.205Z,1.13
2023-03-10T05:40:32.381Z,2.80
2023-03-10T05:45:21.025Z,1.50
2023-03-10T05:50:11.709Z,2.47
2023-03-10T05:54:55.351Z,2.73
2023-03-10T05:59:58.785Z,1.30
2023-03-10T06:04:48.891Z,1.30
2023-03-10T06:09:41.440Z,0.90
2023-03-10T06:14:25.531Z,1.17
2023-03-10T06:19:18.088Z,1.87
2023-03-10T06:24:01.613Z,1.37
2023-03-10T06:28:48.724Z,1.60
2023-03-10T06:33:34.695Z,1.93
2023-03-10T06:38:26.787Z,0.50
2023-03-10T06:43:12.320Z,1.13
2023-03-10T06:48:01.880Z,1.03
2023-03-10T06:53:03.049Z,1.33
2023-03-10T06:57:57.217Z,0.63
2023-03-10T07:02:42.203Z,2.50
2023-03-10T07:07:28.748Z,0.73
2023-03-10T07:12:15.769Z,1.63
2023-03-10T07:17:26.152Z,0.87
2023-03-10T07:22:11.396Z,1.70
2023-03-10T07:26:54.947Z,6.23
2023-03-10T07:31:46.476Z,3.97
2023-03-10T07:36:32.227Z,2.63
2023-03-10T07:41:23.280Z,4.77
2023-03-10T07:46:07.992Z,1.43
2023-03-10T07:50:58.246Z,2.00
2023-03-10T07:55:46.529Z,1.60
2023-03-10T08:00:32.088Z,13.90
2023-03-10T08:05:18.966Z,7.47
2023-03-10T08:10:27.608Z,1.50
2023-03-10T08:15:28.184Z,0.50
2023-03-10T08:20:16.354Z,0.67
2023-03-10T08:25:03.936Z,1.07
2023-03-10T08:29:52.553Z,0.97
2023-03-10T08:34:41.814Z,1.93
2023-03-10T08:39:43.738Z,1.03
2023-03-10T08:44:33.371Z,0.70
2023-03-10T08:49:21.290Z,8.30
2023-03-10T08:54:09.201Z,1.27
2023-03-10T08:58:59.127Z,7.33
2023-03-10T09:03:45.440Z,1.77
2023-03-10T09:08:34.603Z,1.03
2023-03-10T09:13:36.919Z,1.60
2023-03-10T09:18:26.215Z,2.13
2023-03-10T09:28:17.423Z,1.17
2023-03-10T09:38:08.367Z,0.90
2023-03-10T09:43:27.076Z,2.03
2023-03-10T09:48:50.932Z,1.23
2023-03-10T09:53:57.436Z,1.90
2023-03-10T09:59:29.888Z,1.97
2023-03-10T10:04:28.426Z,0.67
2023-03-10T10:09:24.006Z,2.37
2023-03-10T10:14:48.058Z,3.20
2023-03-10T10:19:49.418Z,2.33
2023-03-10T10:24:33.428Z,3.57
2023-03-10T10:29:24.229Z,1.93
2023-03-10T10:34:22.444Z,2.87
2023-03-10T10:39:32.459Z,2.00
2023-03-10T10:44:19.794Z,1.43
2023-03-10T10:49:23.677Z,3.43
2023-03-10T10:54:28.453Z,1.47
2023-03-10T10:59:31.739Z,2.03
2023-03-10T11:04:17.459Z,3.57
2023-03-10T11:09:20.496Z,2.20
2023-03-10T11:14:22.452Z,3.40
2023-03-10T11:19:30.173Z,8.43
2023-03-10T11:24:23.515Z,2.00
2023-03-10T11:29:31.885Z,1.90
2023-03-10T11:34:38.573Z,1.43
2023-03-10T11:39:46.092Z,2.20
2023-03-10T11:44:47.419Z,1.27
2023-03-10T11:49:38.660Z,3.33
2023-03-10T11:54:27.154Z,2.93
2023-03-10T11:59:18.155Z,1.73
2023-03-10T12:04:13.640Z,2.47
2023-03-10T12:09:09.878Z,1.87
2023-03-10T12:13:58.083Z,1.57
2023-03-10T12:18:54.646Z,1.93
2023-03-10T12:24:01.270Z,2.33
2023-03-10T12:29:27.057Z,2.83
2023-03-10T12:34:23.957Z,3.77
2023-03-10T12:39:44.504Z,1.17
2023-03-10T12:44:57.100Z,1.60
2023-03-10T12:50:04.714Z,2.77
2023-03-10T12:55:11.552Z,3.27
2023-03-10T13:00:05.376Z,1.90
2023-03-10T13:04:53.537Z,1.73
2023-03-10T13:09:42.353Z,2.73
2023-03-10T13:14:41.482Z,2.97
2023-03-10T13:19:28.783Z,4.30
2023-03-10T13:24:29.829Z,0.80
2023-03-10T13:29:23.971Z,1.60
2023-03-10T13:34:22.959Z,1.93
2023-03-10T13:39:16.486Z,1.23
2023-03-10T13:44:03.237Z,2.47
2023-03-10T13:48:51.031Z,2.00
2023-03-10T13:53:36.540Z,3.13
2023-03-10T13:58:23.002Z,1.40
2023-03-10T14:03:15.639Z,1.97
2023-03-10T14:08:02.476Z,1.57
2023-03-10T14:12:49.900Z,3.27
2023-03-10T14:17:37.685Z,2.23
2023-03-10T14:22:41.551Z,0.57
2023-03-10T14:27:29.238Z,1.53
2023-03-10T14:32:16.230Z,0.50
2023-03-10T14:37:18.607Z,1.23
2023-03-10T14:42:38.284Z,1.00
2023-03-10T14:47:47.346Z,0.50
2023-03-10T14:52:34.836Z,0.53
2023-03-10T14:57:23.652Z,0.70
2023-03-10T15:07:31.454Z,1.13
2023-03-10T15:12:20.965Z,1.03
2023-03-10T15:18:09.308Z,1.13
2023-03-10T15:23:48.587Z,0.70
2023-03-10T15:33:55.140Z,1.47
2023-03-10T15:38:41.001Z,1.03
2023-03-10T15:43:29.498Z,1.10
2023-03-10T15:48:18.987Z,0.60
2023-03-10T15:53:09.077Z,2.77
2023-03-10T15:57:56.233Z,1.37
2023-03-10T16:02:40.451Z,1.37
2023-03-10T16:07:27.642Z,1.93
2023-03-10T16:12:16.590Z,2.33
2023-03-10T16:17:07.304Z,0.80
2023-03-10T16:21:53.846Z,2.30
2023-03-10T16:26:42.461Z,2.03
2023-03-10T16:31:34.529Z,0.90
2023-03-10T16:37:20.176Z,2.40
2023-03-10T16:42:09.442Z,0.90
2023-03-10T16:46:56.444Z,1.13
2023-03-10T16:51:45.041Z,1.70
2023-03-10T16:56:38.448Z,0.80
2023-03-10T17:01:42.263Z,0.60
2023-03-10T17:06:38.226Z,2.07
2023-03-10T17:11:49.801Z,1.03
2023-03-10T17:16:34.800Z,1.30
2023-03-10T17:21:25.804Z,1.80
2023-03-10T17:26:10.445Z,2.20
2023-03-10T17:30:55.578Z,2.10
2023-03-10T17:35:48.970Z,1.60
2023-03-10T17:40:33.970Z,3.10
2023-03-10T17:45:19.318Z,4.97
2023-03-10T17:50:09.832Z,3.10
2023-03-10T17:54:57.492Z,2.53
2023-03-10T17:59:44.346Z,2.13
2023-03-10T18:04:35.987Z,2.43
2023-03-10T18:09:24.402Z,2.20
2023-03-10T18:14:08.670Z,1.57
2023-03-10T18:18:56.716Z,1.30
2023-03-10T18:23:46.748Z,0.70
2023-03-10T18:28:32.991Z,1.70
2023-03-10T18:33:20.793Z,0.90
2023-03-10T18:38:07.985Z,0.70
2023-03-10T18:43:00.677Z,1.03
2023-03-10T18:47:46.895Z,1.00
2023-03-10T18:52:34.292Z,0.70
2023-03-10T18:57:21.824Z,1.00
2023-03-10T19:02:22.439Z,0.80
2023-03-10T19:07:32.976Z,0.50
2023-03-10T19:12:16.839Z,0.70
2023-03-10T19:17:04.927Z,0.63
2023-03-10T19:21:54.219Z,0.40
2023-03-10T19:26:43.974Z,0.70
2023-03-10T19:31:42.821Z,1.00
2023-03-10T19:36:52.137Z,0.60
2023-03-10T19:41:35.971Z,0.70
2023-03-10T19:46:25.419Z,1.13
2023-03-10T19:51:27.480Z,0.40
2023-03-10T19:56:21.607Z,0.60
2023-03-10T20:36:52.238Z,0.50
2023-03-10T20:42:12.223Z,0.50
2023-03-10T20:52:21.070Z,0.30
2023-03-10T20:57:21.534Z,0.50
2023-03-10T21:07:57.555Z,0.40
2023-03-10T21:12:47.685Z,0.40
2023-03-10T21:17:56.472Z,0.63
2023-03-10T21:29:37.448Z,0.70
2023-03-10T21:41:23.497Z,0.60
2023-03-10T21:47:25.293Z,0.60
2023-03-10T21:53:20.908Z,0.70
2023-03-10T21:58:42.520Z,1.03
2023-03-10T22:09:22.395Z,0.87
2023-03-10T22:14:24.681Z,0.70
2023-03-10T22:19:13.925Z,0.60
2023-03-10T22:24:16.302Z,0.93
2023-03-10T22:29:24.155Z,0.70
2023-03-10T22:34:28.799Z,0.70
2023-03-10T22:39:16.912Z,0.87
2023-03-10T22:44:04.922Z,0.80
2023-03-10T22:48:52.478Z,0.80
2023-03-10T22:53:41.437Z,1.17
2023-03-10T22:58:27.919Z,1.00
2023-03-10T23:03:42.855Z,0.93
2023-03-10T23:09:00.363Z,0.80
2023-03-10T23:13:50.990Z,1.50
2023-03-10T23:19:01.890Z,1.37
2023-03-10T23:29:41.018Z,1.90
2023-03-10T23:44:54.148Z,0.83
2023-03-10T23:50:38.405Z,0.67
2023-03-10T23:56:35.836Z,0.80
